createdAt,value
2018-01-21T00:01:22.393Z,39.50
2018-01-21T00:03:51.688Z,39.87
2018-01-21T00:06:20.330Z,39.07
2018-01-21T00:08:48.556Z,38.17
2018-01-21T00:11:16.934Z,40.37
2018-01-21T00:13:45.264Z,40.27
2018-01-21T00:16:13.504Z,38.70
2018-01-21T00:18:43.152Z,40.70
2018-01-21T00:21:11.274Z,37.80
2018-01-21T00:23:39.584Z,39.90
2018-01-21T00:28:38.047Z,40.70
2018-01-21T00:31:06.230Z,39.00
2018-01-21T00:33:34.527Z,39.60
2018-01-21T00:36:03.695Z,36.60
2018-01-21T00:38:31.920Z,38.00
2018-01-21T00:41:01.097Z,38.90
2018-01-21T00:43:29.761Z,35.80
2018-01-21T00:45:58.059Z,35.90
2018-01-21T00:48:27.076Z,37.00
2018-01-21T00:50:56.139Z,38.00
2018-01-21T00:53:24.393Z,38.03
2018-01-21T00:55:53.464Z,39.37
2018-01-21T00:58:21.880Z,40.27
2018-01-21T01:00:50.885Z,37.87
2018-01-21T01:03:19.136Z,43.10
2018-01-21T01:05:48.228Z,40.07
2018-01-21T01:08:17.588Z,40.73
2018-01-21T01:10:47.176Z,38.20
2018-01-21T01:13:16.104Z,39.77
2018-01-21T01:15:44.340Z,38.50
2018-01-21T01:18:13.423Z,38.23
2018-01-21T01:20:41.734Z,38.50
2018-01-21T01:23:10.107Z,36.10
2018-01-21T01:25:39.842Z,39.03
2018-01-21T01:28:10.739Z,36.20
2018-01-21T01:30:40.384Z,48.10
2018-01-21T01:33:08.651Z,41.90
2018-01-21T01:35:38.083Z,38.27
2018-01-21T01:38:07.114Z,39.87
2018-01-21T01:40:36.509Z,39.30
2018-01-21T01:43:04.816Z,39.57
2018-01-21T01:45:33.040Z,36.53
2018-01-21T01:48:01.688Z,38.87
2018-01-21T01:50:31.480Z,36.47
2018-01-21T01:52:59.730Z,38.03
2018-01-21T01:55:27.959Z,38.50
2018-01-21T01:57:56.243Z,36.07
2018-01-21T02:00:25.263Z,35.87
2018-01-21T02:02:53.500Z,38.17
2018-01-21T02:05:21.767Z,38.43
2018-01-21T02:07:50.004Z,35.60
2018-01-21T02:10:18.237Z,34.00
2018-01-21T02:12:48.013Z,32.60
2018-01-21T02:15:17.923Z,35.93
2018-01-21T02:17:46.924Z,34.60
2018-01-21T02:20:18.107Z,36.43
2018-01-21T02:22:47.102Z,34.70
2018-01-21T02:25:17.672Z,34.00
2018-01-21T02:27:47.103Z,35.20
2018-01-21T02:30:16.691Z,34.50
2018-01-21T02:32:45.200Z,33.83
2018-01-21T02:35:14.248Z,34.00
2018-01-21T02:37:42.872Z,30.33
2018-01-21T02:40:11.109Z,29.93
2018-01-21T02:42:39.661Z,29.77
2018-01-21T02:45:08.309Z,30.33
2018-01-21T02:47:37.359Z,28.00
2018-01-21T02:50:05.693Z,29.30
2018-01-21T02:52:33.930Z,29.40
2018-01-21T02:55:03.695Z,28.93
2018-01-21T02:57:31.951Z,27.57
2018-01-21T03:00:00.196Z,27.07
2018-01-21T03:02:28.429Z,27.83
2018-01-21T03:04:56.708Z,28.83
2018-01-21T03:07:24.967Z,29.00
2018-01-21T03:09:54.737Z,25.27
2018-01-21T03:12:23.020Z,26.97
2018-01-21T03:14:51.256Z,24.40
2018-01-21T03:17:19.485Z,26.20
2018-01-21T03:19:47.771Z,25.23
2018-01-21T03:22:16.019Z,24.67
2018-01-21T03:24:45.017Z,22.37
2018-01-21T03:27:14.662Z,21.87
2018-01-21T03:29:43.160Z,20.63
2018-01-21T03:32:12.900Z,20.57
2018-01-21T03:34:41.560Z,21.73
2018-01-21T03:37:09.813Z,20.60
2018-01-21T03:39:38.824Z,22.37
2018-01-21T03:42:07.117Z,22.77
2018-01-21T03:44:36.887Z,21.93
2018-01-21T03:47:05.143Z,20.90
2018-01-21T03:49:33.424Z,22.07
2018-01-21T03:52:02.445Z,22.13
2018-01-21T03:54:31.080Z,21.00
2018-01-21T03:56:59.428Z,22.60
2018-01-21T04:00:09.824Z,24.20
2018-01-21T04:02:38.880Z,20.70
2018-01-21T04:05:07.133Z,22.80
2018-01-21T04:07:35.395Z,21.50
2018-01-21T04:10:03.660Z,22.60
2018-01-21T04:12:33.042Z,23.50
2018-01-21T04:15:01.294Z,22.90
2018-01-21T04:17:29.580Z,22.83
2018-01-21T04:19:57.831Z,23.40
2018-01-21T04:22:26.097Z,24.90
2018-01-21T04:24:54.407Z,24.53
2018-01-21T04:27:22.637Z,25.60
2018-01-21T04:29:50.868Z,25.83
2018-01-21T04:32:21.328Z,24.70
2018-01-21T04:34:50.916Z,28.23
2018-01-21T04:37:20.389Z,27.90
2018-01-21T04:39:49.296Z,27.20
2018-01-21T04:42:18.308Z,30.50
2018-01-21T04:44:47.692Z,25.90
2018-01-21T04:47:15.971Z,26.87
2018-01-21T04:49:44.995Z,28.80
2018-01-21T04:52:13.242Z,27.57
2018-01-21T04:54:41.516Z,26.50
2018-01-21T04:57:09.761Z,28.03
2018-01-21T04:59:39.162Z,28.00
2018-01-21T05:02:08.808Z,27.87
2018-01-21T05:04:38.311Z,28.37
2018-01-21T05:07:06.438Z,27.47
2018-01-21T05:09:35.203Z,26.47
2018-01-21T05:12:04.228Z,26.80
2018-01-21T05:14:32.455Z,25.27
2018-01-21T05:17:00.740Z,26.37
2018-01-21T05:19:28.973Z,26.73
2018-01-21T05:21:57.208Z,27.23
2018-01-21T05:24:26.844Z,24.25
2018-01-21T05:26:56.319Z,26.40
2018-01-21T05:29:24.451Z,24.57
2018-01-21T05:31:55.356Z,26.00
2018-01-21T05:34:24.975Z,25.27
2018-01-21T05:36:53.090Z,26.70
2018-01-21T05:39:21.380Z,25.67
2018-01-21T05:41:50.400Z,23.37
2018-01-21T05:44:19.385Z,24.73
2018-01-21T05:46:47.656Z,25.87
2018-01-21T05:49:15.896Z,25.07
2018-01-21T05:51:44.131Z,23.57
2018-01-21T05:54:12.752Z,26.17
2018-01-21T05:56:40.992Z,25.80
2018-01-21T05:59:09.256Z,25.20
2018-01-21T06:01:39.412Z,24.97
2018-01-21T06:04:07.674Z,25.43
2018-01-21T06:06:37.078Z,27.17
2018-01-21T06:09:05.755Z,24.10
2018-01-21T06:11:34.415Z,25.77
2018-01-21T06:14:04.221Z,26.43
2018-01-21T06:16:32.896Z,25.23
2018-01-21T06:19:01.136Z,23.13
2018-01-21T06:21:29.373Z,25.73
2018-01-21T06:23:59.140Z,23.93
2018-01-21T06:26:27.383Z,23.90
2018-01-21T06:28:55.650Z,25.90
2018-01-21T06:31:24.719Z,26.90
2018-01-21T06:33:54.134Z,24.80
2018-01-21T06:36:22.376Z,26.30
2018-01-21T06:38:50.673Z,28.50
2018-01-21T06:41:18.915Z,28.07
2018-01-21T06:43:47.146Z,25.97
2018-01-21T06:46:16.186Z,26.37
2018-01-21T06:48:44.424Z,24.15
2018-01-21T06:51:14.016Z,23.97
2018-01-21T06:53:42.579Z,25.17
2018-01-21T06:56:11.226Z,24.00
2018-01-21T06:58:40.627Z,21.98
2018-01-21T07:01:08.916Z,22.70
2018-01-21T07:03:37.197Z,21.33
2018-01-21T07:06:05.452Z,22.67
2018-01-21T07:08:35.113Z,21.57
2018-01-21T07:11:04.015Z,20.03
2018-01-21T07:13:32.256Z,19.87
2018-01-21T07:16:00.613Z,21.30
2018-01-21T07:18:29.981Z,18.23
2018-01-21T07:20:58.217Z,17.87
2018-01-21T07:23:26.484Z,19.40
2018-01-21T07:25:54.744Z,16.33
2018-01-21T07:28:24.128Z,18.40
2018-01-21T07:30:52.398Z,19.50
2018-01-21T07:33:20.623Z,16.03
2018-01-21T07:35:48.900Z,16.70
2018-01-21T07:38:18.696Z,15.97
2018-01-21T07:40:46.932Z,16.13
2018-01-21T07:43:15.173Z,15.47
2018-01-21T07:45:43.444Z,16.20
2018-01-21T07:48:11.691Z,16.33
2018-01-21T07:50:39.962Z,15.53
2018-01-21T07:53:08.250Z,14.00
2018-01-21T07:55:37.313Z,14.93
2018-01-21T07:58:05.579Z,14.93
2018-01-21T08:00:35.238Z,15.07
2018-01-21T08:03:04.116Z,13.73
2018-01-21T08:05:32.352Z,14.93
2018-01-21T08:08:00.624Z,15.20
2018-01-21T08:10:28.864Z,13.70
2018-01-21T08:12:58.460Z,11.80
2018-01-21T08:15:27.388Z,13.10
2018-01-21T08:17:56.384Z,14.10
2018-01-21T08:20:25.980Z,11.57
2018-01-21T08:22:54.532Z,12.87
2018-01-21T08:25:22.778Z,12.43
2018-01-21T08:27:51.012Z,12.33
2018-01-21T08:30:20.045Z,11.90
2018-01-21T08:32:49.048Z,12.60
2018-01-21T08:35:24.403Z,12.40
2018-01-21T08:37:59.775Z,10.53
2018-01-21T08:40:33.704Z,10.50
2018-01-21T08:43:03.253Z,12.20
2018-01-21T08:45:32.131Z,10.77
2018-01-21T08:48:00.414Z,9.20
2018-01-21T08:50:28.641Z,9.50
2018-01-21T08:52:58.241Z,7.77
2018-01-21T08:55:27.160Z,7.23
2018-01-21T08:57:56.752Z,7.27
2018-01-21T09:00:26.368Z,7.23
2018-01-21T09:02:55.054Z,6.83
2018-01-21T09:05:24.652Z,6.83
2018-01-21T09:07:54.271Z,7.03
2018-01-21T09:10:23.307Z,6.23
2018-01-21T09:12:51.545Z,6.00
2018-01-21T09:15:19.778Z,6.10
2018-01-21T09:17:49.187Z,6.13
2018-01-21T09:20:17.412Z,5.60
2018-01-21T09:22:46.405Z,7.00
2018-01-21T09:25:15.804Z,7.27
2018-01-21T09:27:44.032Z,5.90
2018-01-21T09:30:12.252Z,5.97
2018-01-21T09:32:41.680Z,6.37
2018-01-21T09:35:09.965Z,6.23
2018-01-21T09:37:38.987Z,5.90
2018-01-21T09:40:08.625Z,5.70
2018-01-21T09:42:38.277Z,5.20
2018-01-21T09:45:08.031Z,5.37
2018-01-21T09:47:37.032Z,6.27
2018-01-21T09:50:06.719Z,5.10
2018-01-21T09:52:34.845Z,6.53
2018-01-21T09:55:03.074Z,5.17
2018-01-21T09:57:32.860Z,5.40
2018-01-21T10:00:01.099Z,5.40
2018-01-21T10:02:29.720Z,5.80
2018-01-21T10:04:59.484Z,5.30
2018-01-21T10:07:27.726Z,4.60
2018-01-21T10:09:55.980Z,5.53
2018-01-21T10:12:25.376Z,5.17
2018-01-21T10:14:54.379Z,4.23
2018-01-21T10:17:22.611Z,5.37
2018-01-21T10:19:51.637Z,4.30
2018-01-21T10:22:19.856Z,5.00
2018-01-21T10:24:49.436Z,4.27
2018-01-21T10:27:17.963Z,4.70
2018-01-21T10:29:46.190Z,4.80
2018-01-21T10:32:14.416Z,4.10
2018-01-21T10:34:42.672Z,4.37
2018-01-21T10:37:10.904Z,3.60
2018-01-21T10:39:40.049Z,3.60
2018-01-21T10:42:09.492Z,3.00
2018-01-21T10:44:37.731Z,3.43
2018-01-21T10:47:05.973Z,3.40
2018-01-21T10:49:35.600Z,3.87
2018-01-21T10:52:05.068Z,3.73
2018-01-21T10:54:33.168Z,3.40
2018-01-21T10:57:02.196Z,2.97
2018-01-21T10:59:31.547Z,3.53
2018-01-21T11:01:59.771Z,2.80
2018-01-21T11:04:28.028Z,3.63
2018-01-21T11:06:57.769Z,2.60
2018-01-21T11:09:26.751Z,3.73
2018-01-21T11:11:56.148Z,3.60
2018-01-21T11:14:24.395Z,3.43
2018-01-21T11:16:52.612Z,3.70
2018-01-21T11:21:55.138Z,3.77
2018-01-21T11:24:23.836Z,3.17
2018-01-21T11:26:53.198Z,3.20
2018-01-21T11:29:21.444Z,3.47
2018-01-21T11:31:49.690Z,4.20
2018-01-21T11:34:19.023Z,3.07
2018-01-21T11:36:47.272Z,3.10
2018-01-21T11:39:15.492Z,4.17
2018-01-21T11:41:44.475Z,3.57
2018-01-21T11:44:13.530Z,4.97
2018-01-21T11:46:43.099Z,3.30
2018-01-21T11:49:11.596Z,3.07
2018-01-21T11:51:41.926Z,4.53
2018-01-21T11:54:10.936Z,2.70
2018-01-21T11:56:39.940Z,3.20
2018-01-21T11:59:08.226Z,4.70
2018-01-21T12:01:36.460Z,2.73
2018-01-21T12:04:05.452Z,2.63
2018-01-21T12:06:35.073Z,2.63
2018-01-21T12:09:03.575Z,3.10
2018-01-21T12:11:31.800Z,3.63
2018-01-21T12:14:01.573Z,2.43
2018-01-21T12:16:29.793Z,2.83
2018-01-21T12:18:59.916Z,2.27
2018-01-21T12:21:28.176Z,3.87
2018-01-21T12:23:56.405Z,2.53
2018-01-21T12:26:25.408Z,2.47
2018-01-21T12:28:55.038Z,2.50
2018-01-21T12:31:23.558Z,2.60
2018-01-21T12:33:52.167Z,2.80
2018-01-21T12:36:21.786Z,2.47
2018-01-21T12:38:49.888Z,2.40
2018-01-21T12:41:18.120Z,2.90
2018-01-21T12:43:46.381Z,3.13
2018-01-21T12:46:14.608Z,2.70
2018-01-21T12:48:44.187Z,3.20
2018-01-21T12:51:13.706Z,2.60
2018-01-21T12:53:43.158Z,3.00
2018-01-21T12:56:12.624Z,3.40
2018-01-21T12:58:42.152Z,2.40
2018-01-21T13:01:11.582Z,2.37
2018-01-21T13:03:41.063Z,2.10
2018-01-21T13:06:09.216Z,2.90
2018-01-21T13:08:38.806Z,2.37
2018-01-21T13:11:08.296Z,2.30
2018-01-21T13:13:37.801Z,3.63
2018-01-21T13:16:06.010Z,2.33
2018-01-21T13:18:34.227Z,3.30
2018-01-21T13:21:02.494Z,3.10
2018-01-21T13:23:32.109Z,2.60
2018-01-21T13:26:01.559Z,2.10
2018-01-21T13:28:30.458Z,2.93
2018-01-21T13:30:59.283Z,2.20
2018-01-21T13:33:28.874Z,1.90
2018-01-21T13:35:57.392Z,2.07
2018-01-21T13:38:27.026Z,1.60
2018-01-21T13:40:56.467Z,2.03
2018-01-21T13:43:25.974Z,2.10
2018-01-21T13:45:54.110Z,3.20
2018-01-21T13:48:22.339Z,2.93
2018-01-21T13:50:51.330Z,2.63
2018-01-21T13:53:19.644Z,3.10
2018-01-21T13:55:47.848Z,2.93
2018-01-21T13:58:17.580Z,2.63
2018-01-21T14:00:45.841Z,2.80
2018-01-21T14:03:14.111Z,2.67
2018-01-21T14:05:43.819Z,2.80
2018-01-21T14:08:13.462Z,2.30
2018-01-21T14:10:42.692Z,2.80
2018-01-21T14:13:12.267Z,3.77
2018-01-21T14:15:41.771Z,2.60
2018-01-21T14:18:11.023Z,3.10
2018-01-21T14:20:39.328Z,3.00
2018-01-21T14:23:07.590Z,2.60
2018-01-21T14:25:37.225Z,2.60
2018-01-21T14:28:05.391Z,2.60
2018-01-21T14:30:35.236Z,3.03
2018-01-21T14:33:03.448Z,3.00
2018-01-21T14:35:33.181Z,3.33
2018-01-21T14:38:02.815Z,2.77
2018-01-21T14:40:32.285Z,2.60
2018-01-21T14:43:00.384Z,2.73
2018-01-21T14:45:29.985Z,3.10
2018-01-21T14:47:59.629Z,3.43
2018-01-21T14:50:28.131Z,2.33
2018-01-21T14:52:56.442Z,3.63
2018-01-21T14:55:26.059Z,2.70
2018-01-21T14:57:54.916Z,3.47
2018-01-21T15:00:23.176Z,3.77
2018-01-21T15:02:52.748Z,3.97
2018-01-21T15:05:22.199Z,4.47
2018-01-21T15:07:51.685Z,4.50
2018-01-21T15:10:20.552Z,4.50
2018-01-21T15:12:48.790Z,5.27
2018-01-21T15:15:18.472Z,4.17
2018-01-21T15:17:47.323Z,4.93
2018-01-21T15:20:15.599Z,4.43
2018-01-21T15:22:45.208Z,4.33
2018-01-21T15:25:13.386Z,5.40
2018-01-21T15:27:42.375Z,4.93
2018-01-21T15:30:12.211Z,5.00
2018-01-21T15:32:40.442Z,5.50
2018-01-21T15:35:10.194Z,5.40
2018-01-21T15:37:38.556Z,5.53
2018-01-21T15:40:06.828Z,6.97
2018-01-21T15:42:35.061Z,6.27
2018-01-21T15:45:04.736Z,5.50
2018-01-21T15:47:34.380Z,5.73
2018-01-21T15:50:02.588Z,6.17
2018-01-21T15:52:30.864Z,4.90
2018-01-21T15:54:59.130Z,6.23
2018-01-21T15:57:27.349Z,5.67
2018-01-21T15:59:56.980Z,5.00
2018-01-21T16:02:25.112Z,6.50
2018-01-21T16:04:53.381Z,6.27
2018-01-21T16:07:21.620Z,6.80
2018-01-21T16:09:49.840Z,5.80
2018-01-21T16:12:18.173Z,6.80
2018-01-21T16:14:47.914Z,7.03
2018-01-21T16:17:17.502Z,5.67
2018-01-21T16:19:46.736Z,6.13
2018-01-21T16:22:15.012Z,7.20
2018-01-21T16:24:44.630Z,6.10
2018-01-21T16:27:14.118Z,7.17
2018-01-21T16:29:42.296Z,8.13
2018-01-21T16:32:10.539Z,8.40
2018-01-21T16:34:40.169Z,10.10
2018-01-21T16:39:58.750Z,9.23
2018-01-21T16:42:27.056Z,9.90
2018-01-21T16:44:56.078Z,9.03
2018-01-21T16:47:25.106Z,10.50
2018-01-21T16:49:53.356Z,9.80
2018-01-21T16:52:21.579Z,9.40
2018-01-21T16:54:49.877Z,11.10
2018-01-21T16:57:18.193Z,12.73
2018-01-21T16:59:46.415Z,12.17
2018-01-21T17:02:14.660Z,12.47
2018-01-21T17:04:44.306Z,12.50
2018-01-21T17:07:12.843Z,9.93
2018-01-21T17:09:41.111Z,13.20
2018-01-21T17:12:09.381Z,13.67
2018-01-21T17:14:38.380Z,14.47
2018-01-21T17:17:06.681Z,14.23
2018-01-21T17:19:34.975Z,15.87
2018-01-21T17:22:04.756Z,13.73
2018-01-21T17:24:33.023Z,12.27
2018-01-21T17:27:01.297Z,13.50
2018-01-21T17:29:31.036Z,12.50
2018-01-21T17:32:00.035Z,13.03
2018-01-21T17:34:29.696Z,13.30
2018-01-21T17:36:58.320Z,13.10
2018-01-21T17:39:26.605Z,15.90
2018-01-21T17:41:56.360Z,13.17
2018-01-21T17:44:24.597Z,14.83
2018-01-21T17:46:52.874Z,13.83
2018-01-21T17:49:21.200Z,15.00
2018-01-21T17:51:50.858Z,12.70
2018-01-21T17:54:20.115Z,13.20
2018-01-21T17:56:49.826Z,13.13
2018-01-21T17:59:18.331Z,13.67
2018-01-21T18:01:46.572Z,13.60
2018-01-21T18:04:14.889Z,14.83
2018-01-21T18:06:43.188Z,13.17
2018-01-21T18:09:11.413Z,11.70
2018-01-21T18:11:39.735Z,13.07
2018-01-21T18:14:09.362Z,14.00
2018-01-21T18:16:37.525Z,15.43
2018-01-21T18:19:05.842Z,13.70
2018-01-21T18:21:34.133Z,15.07
2018-01-21T18:24:02.371Z,15.30
2018-01-21T18:26:30.697Z,14.40
2018-01-21T18:29:00.320Z,15.60
2018-01-21T18:31:28.830Z,14.80
2018-01-21T18:33:57.942Z,17.20
2018-01-21T18:36:26.207Z,14.10
2018-01-21T18:38:54.476Z,12.40
2018-01-21T18:41:22.732Z,17.87
2018-01-21T18:43:51.021Z,12.20
2018-01-21T18:46:20.377Z,13.60
2018-01-21T18:48:49.072Z,15.83
2018-01-21T18:51:17.331Z,16.53
2018-01-21T18:53:45.653Z,9.70
2018-01-21T18:56:15.285Z,13.10
2018-01-21T18:58:43.488Z,16.67
2018-01-21T19:01:11.755Z,17.93
2018-01-21T19:03:40.100Z,16.70
2018-01-21T19:06:09.690Z,14.47
2018-01-21T19:08:38.233Z,14.80
2018-01-21T19:11:06.547Z,17.47
2018-01-21T19:13:35.575Z,17.37
2018-01-21T19:16:03.861Z,20.33
2018-01-21T19:18:32.121Z,20.10
2018-01-21T19:21:00.418Z,20.33
2018-01-21T19:23:30.289Z,14.43
2018-01-21T19:25:58.510Z,18.03
2018-01-21T19:28:26.779Z,20.67
2018-01-21T19:30:55.474Z,16.60
2018-01-21T19:33:25.293Z,11.37
2018-01-21T19:35:53.555Z,12.53
2018-01-21T19:38:37.515Z,12.80
2018-01-21T19:41:06.742Z,17.47
2018-01-21T19:43:36.367Z,18.57
2018-01-21T19:46:05.703Z,12.77
2018-01-21T19:48:33.920Z,11.40
2018-01-21T19:51:02.169Z,15.10
2018-01-21T19:53:30.474Z,15.87
2018-01-21T19:55:59.522Z,14.97
2018-01-21T19:58:27.802Z,17.10
2018-01-21T20:00:58.299Z,13.70
2018-01-21T20:03:26.439Z,14.87
2018-01-21T20:05:56.077Z,12.60
2018-01-21T20:08:24.204Z,12.40
2018-01-21T20:10:52.431Z,13.57
2018-01-21T20:13:20.659Z,14.83
2018-01-21T20:15:50.424Z,16.43
2018-01-21T20:18:18.719Z,16.53
2018-01-21T20:20:48.321Z,14.50
2018-01-21T20:23:17.889Z,13.00
2018-01-21T20:25:47.050Z,13.93
2018-01-21T20:28:15.765Z,13.97
2018-01-21T20:30:45.427Z,15.63
2018-01-21T20:33:15.586Z,16.40
2018-01-21T20:35:44.219Z,14.80
2018-01-21T20:38:13.659Z,19.00
2018-01-21T20:40:42.733Z,14.73
2018-01-21T20:43:12.345Z,19.90
2018-01-21T20:45:42.045Z,20.80
2018-01-21T20:48:10.257Z,19.30
2018-01-21T20:50:38.509Z,18.13
2018-01-21T20:53:13.948Z,20.03
2018-01-21T20:55:42.179Z,16.40
2018-01-21T20:58:11.182Z,16.10
2018-01-21T21:00:39.448Z,16.10
2018-01-21T21:03:10.143Z,17.60
2018-01-21T21:05:39.803Z,20.57
2018-01-21T21:08:09.451Z,15.03
2018-01-21T21:10:37.710Z,15.97
2018-01-21T21:13:05.985Z,15.23
2018-01-21T21:15:34.280Z,16.97
2018-01-21T21:18:03.293Z,18.30
2018-01-21T21:20:31.616Z,14.83
2018-01-21T21:23:01.249Z,17.00
2018-01-21T21:25:30.695Z,19.57
2018-01-21T21:27:59.683Z,20.30
2018-01-21T21:30:27.912Z,14.93
2018-01-21T21:32:56.202Z,17.23
2018-01-21T21:35:25.090Z,18.37
2018-01-21T21:37:54.715Z,17.13
2018-01-21T21:40:24.330Z,15.10
2018-01-21T21:42:52.591Z,14.70
2018-01-21T21:45:20.890Z,9.60
2018-01-21T21:47:49.175Z,12.33
2018-01-21T21:50:17.484Z,12.40
2018-01-21T21:52:45.753Z,7.80
2018-01-21T21:55:15.381Z,9.53
2018-01-21T21:57:43.985Z,9.27
2018-01-21T22:00:13.011Z,8.50
2018-01-21T22:02:42.423Z,10.17
2018-01-21T22:05:11.452Z,9.53
2018-01-21T22:07:39.676Z,8.67
2018-01-21T22:10:07.904Z,9.40
2018-01-21T22:12:36.169Z,10.27
2018-01-21T22:15:04.475Z,11.87
2018-01-21T22:17:33.900Z,14.60
2018-01-21T22:20:03.555Z,12.80
2018-01-21T22:22:32.465Z,14.80
2018-01-21T22:25:00.753Z,16.33
2018-01-21T22:27:29.049Z,15.00
2018-01-21T22:29:58.628Z,16.40
2018-01-21T22:32:27.550Z,16.07
2018-01-21T22:34:55.830Z,18.67
2018-01-21T22:37:25.471Z,18.57
2018-01-21T22:39:55.076Z,19.00
2018-01-21T22:42:24.695Z,15.33
2018-01-21T22:44:54.160Z,19.17
2018-01-21T22:47:23.457Z,18.23
2018-01-21T22:49:51.727Z,17.47
2018-01-21T22:52:19.996Z,15.10
2018-01-21T22:54:48.244Z,12.00
2018-01-21T22:57:17.878Z,14.03
2018-01-21T22:59:46.050Z,20.47
2018-01-21T23:02:14.305Z,20.63
2018-01-21T23:04:42.599Z,21.70
2018-01-21T23:07:13.036Z,20.10
2018-01-21T23:09:42.676Z,18.23
2018-01-21T23:12:10.937Z,15.40
2018-01-21T23:14:39.207Z,15.07
2018-01-21T23:17:07.503Z,14.80
2018-01-21T23:19:35.736Z,13.93
2018-01-21T23:22:05.324Z,14.27
2018-01-21T23:24:34.240Z,16.00
2018-01-21T23:27:03.244Z,14.07
2018-01-21T23:29:31.479Z,13.70
2018-01-21T23:31:59.754Z,13.33
2018-01-21T23:34:27.999Z,12.30
2018-01-21T23:36:56.232Z,13.97
2018-01-21T23:39:24.524Z,11.97
2018-01-21T23:41:53.892Z,13.73
2018-01-21T23:44:22.192Z,10.32
2018-01-21T23:46:50.404Z,9.63
2018-01-21T23:49:18.639Z,9.83
2018-01-21T23:51:46.870Z,9.00
2018-01-21T23:54:16.510Z,11.45
2018-01-21T23:56:45.034Z,10.13
2018-01-21T23:59:13.282Z,6.60
